PWSweather.com
Personal Weather Stations
Station Observations
CARNOUSTIE
Pambride, CarnoustieGB DD7 6DY

PambrideCarnoustieGB DD7 6DY

Lat: 56.50889, Lon: -2.7051

Elevation: 105

Station Type: Oregon Scientific WMR200

www.carnoustieweather.co.uk

High Low Average
Temperature 36.1°F2.3°F 26.6°F-3.0°F 30.6°F-0.8°F
Dew Point 32.6°F0.3°F 24.3°F-4.3°F 28.4°F-2.0°F
Winds 3.5 mph WNW5.6 mph WNW Calm Calm 0.3 mph 0.5 mph
Wind Gusts 8.1 mph13.0 mph -- 1.3 mph2.1 mph
Humidity 98% 76% 92%
Pressure 29.77 in1008.10 in 29.38 in994.90 in -
Precipitation 0.00 in0.00 in - -
Hour Temp Dew Point Humidity Winds Wind Gusts Pressure Precip Precip Rate Daily Precip Total
12:00 AM 31.1°F-0.5°C 30.6°F-0.8°C 98% Calm Calm -- 29.41 in995.9 mb - 0.00 in0.0 mm 0.00 in0.0 mm
12:10 AM 31.1°F-0.5°C 30.6°F-0.8°C 98% Calm Calm -- 29.41 in995.9 mb - 0.00 in0.0 mm 0.00 in0.0 mm
12:20 AM 31.5°F-0.3°C 31.0°F-0.6°C 98% Calm Calm -- 29.44 in997.0 mb - 0.00 in0.0 mm 0.00 in0.0 mm
12:30 AM 32.0°F0.0°C 31.5°F-0.3°C 98% Calm Calm -- 29.44 in997.0 mb - 0.00 in0.0 mm 0.00 in0.0 mm
12:40 AM 32.0°F0.0°C 31.5°F-0.3°C 98% Calm Calm -- 29.41 in995.9 mb - 0.00 in0.0 mm 0.00 in0.0 mm
12:50 AM 32.2°F0.1°C 31.7°F-0.2°C 98% Calm Calm -- 29.41 in995.9 mb - 0.00 in0.0 mm 0.00 in0.0 mm
01:00 AM 32.2°F0.1°C 31.7°F-0.2°C 98% Calm Calm -- 29.41 in995.9 mb - 0.00 in0.0 mm 0.00 in0.0 mm
01:10 AM 32.2°F0.1°C 31.7°F-0.2°C 98% Calm Calm -- 29.41 in995.9 mb - 0.00 in0.0 mm 0.00 in0.0 mm
01:20 AM 32.2°F0.1°C 31.7°F-0.2°C 98% Calm Calm 1.2 mph1.9 kmh 29.41 in995.9 mb - 0.00 in0.0 mm 0.00 in0.0 mm
01:30 AM 32.0°F0.0°C 31.5°F-0.3°C 98% Calm Calm -- 29.41 in995.9 mb - 0.00 in0.0 mm 0.00 in0.0 mm
01:40 AM 32.2°F0.1°C 31.7°F-0.2°C 98% Calm Calm -- 29.38 in994.9 mb - 0.00 in0.0 mm 0.00 in0.0 mm
01:50 AM 32.4°F0.2°C 31.9°F-0.1°C 98% Calm Calm -- 29.38 in994.9 mb - 0.00 in0.0 mm 0.00 in0.0 mm
02:00 AM 32.4°F0.2°C 31.9°F-0.1°C 98% Calm Calm -- 29.38 in994.9 mb - 0.00 in0.0 mm 0.00 in0.0 mm
02:10 AM 32.5°F0.3°C 32.0°F0.0°C 98% Calm Calm -- 29.38 in994.9 mb - 0.00 in0.0 mm 0.00 in0.0 mm
02:20 AM 32.4°F0.2°C 31.9°F-0.1°C 98% Calm Calm 4.6 mph7.4 kmh 29.41 in995.9 mb - 0.00 in0.0 mm 0.00 in0.0 mm
02:30 AM 32.5°F0.3°C 32.0°F0.0°C 98% Calm Calm 2.3 mph3.7 kmh 29.41 in995.9 mb - 0.00 in0.0 mm 0.00 in0.0 mm
02:40 AM 32.4°F0.2°C 31.9°F-0.1°C 98% Calm Calm -- 29.41 in995.9 mb - 0.00 in0.0 mm 0.00 in0.0 mm
02:50 AM 32.0°F0.0°C 31.5°F-0.3°C 98% Calm Calm -- 29.41 in995.9 mb - 0.00 in0.0 mm 0.00 in0.0 mm
03:00 AM 31.6°F-0.2°C 31.1°F-0.5°C 98% Calm Calm -- 29.41 in995.9 mb - 0.00 in0.0 mm 0.00 in0.0 mm
03:10 AM 31.5°F-0.3°C 31.0°F-0.6°C 98% Calm Calm -- 29.41 in995.9 mb - 0.00 in0.0 mm 0.00 in0.0 mm
03:20 AM 31.1°F-0.5°C 30.6°F-0.8°C 98% Calm Calm -- 29.41 in995.9 mb - 0.00 in0.0 mm 0.00 in0.0 mm
03:30 AM 30.6°F-0.8°C 30.1°F-1.1°C 98% Calm Calm 4.6 mph7.4 kmh 29.41 in995.9 mb - 0.00 in0.0 mm 0.00 in0.0 mm
03:40 AM 30.3°F-0.9°C 29.8°F-1.2°C 98% 1.2 mph W1.9 kmh W 4.6 mph7.4 kmh 29.41 in995.9 mb - 0.00 in0.0 mm 0.00 in0.0 mm
03:50 AM 30.2°F-1.0°C 29.7°F-1.3°C 98% Calm Calm -- 29.41 in995.9 mb - 0.00 in0.0 mm 0.00 in0.0 mm
04:00 AM 29.8°F-1.2°C 29.3°F-1.5°C 98% Calm Calm 1.2 mph1.9 kmh 29.41 in995.9 mb - 0.00 in0.0 mm 0.00 in0.0 mm
04:10 AM 30.0°F-1.1°C 29.5°F-1.4°C 98% Calm Calm 1.2 mph1.9 kmh 29.38 in994.9 mb - 0.00 in0.0 mm 0.00 in0.0 mm
04:20 AM 29.8°F-1.2°C 29.3°F-1.5°C 98% Calm Calm -- 29.38 in994.9 mb - 0.00 in0.0 mm 0.00 in0.0 mm
04:30 AM 30.2°F-1.0°C 29.7°F-1.3°C 98% Calm Calm -- 29.38 in994.9 mb - 0.00 in0.0 mm 0.00 in0.0 mm
04:40 AM 30.3°F-0.9°C 29.8°F-1.2°C 98% 1.2 mph W1.9 kmh W 5.8 mph9.3 kmh 29.38 in994.9 mb - 0.00 in0.0 mm 0.00 in0.0 mm
04:50 AM 30.4°F-0.9°C 29.9°F-1.2°C 98% Calm Calm 2.3 mph3.7 kmh 29.38 in994.9 mb - 0.00 in0.0 mm 0.00 in0.0 mm
05:00 AM 30.1°F-1.1°C 29.6°F-1.3°C 98% 1.2 mph W1.9 kmh W 3.5 mph5.6 kmh 29.38 in994.9 mb - 0.00 in0.0 mm 0.00 in0.0 mm
05:10 AM 29.1°F-1.6°C 28.6°F-1.9°C 98% Calm Calm -- 29.38 in994.9 mb - 0.00 in0.0 mm 0.00 in0.0 mm
05:20 AM 28.6°F-1.9°C 28.1°F-2.2°C 98% Calm Calm -- 29.38 in994.9 mb - 0.00 in0.0 mm 0.00 in0.0 mm
05:30 AM 28.2°F-2.1°C 27.7°F-2.4°C 98% Calm Calm -- 29.38 in994.9 mb - 0.00 in0.0 mm 0.00 in0.0 mm
05:40 AM 27.9°F-2.3°C 27.4°F-2.6°C 98% Calm Calm -- 29.41 in995.9 mb - 0.00 in0.0 mm 0.00 in0.0 mm
05:50 AM 28.6°F-1.9°C 28.1°F-2.2°C 98% 1.2 mph W1.9 kmh W 1.2 mph1.9 kmh 29.41 in995.9 mb - 0.00 in0.0 mm 0.00 in0.0 mm
06:00 AM 28.6°F-1.9°C 28.1°F-2.2°C 98% Calm Calm -- 29.41 in995.9 mb - 0.00 in0.0 mm 0.00 in0.0 mm
06:10 AM 29.3°F-1.5°C 28.8°F-1.8°C 98% 1.2 mph WSW1.9 kmh WSW 4.6 mph7.4 kmh 29.41 in995.9 mb - 0.00 in0.0 mm 0.00 in0.0 mm
06:20 AM 29.7°F-1.3°C 29.2°F-1.6°C 98% Calm Calm -- 29.44 in997.0 mb - 0.00 in0.0 mm 0.00 in0.0 mm
06:30 AM 29.5°F-1.4°C 29.0°F-1.7°C 98% Calm Calm 3.5 mph5.6 kmh 29.44 in997.0 mb - 0.00 in0.0 mm 0.00 in0.0 mm
06:40 AM 28.8°F-1.8°C 28.3°F-2.1°C 98% Calm Calm -- 29.41 in995.9 mb - 0.00 in0.0 mm 0.00 in0.0 mm
06:50 AM 28.6°F-1.9°C 28.1°F-2.2°C 98% Calm Calm -- 29.41 in995.9 mb - 0.00 in0.0 mm 0.00 in0.0 mm
07:00 AM 28.2°F-2.1°C 27.7°F-2.4°C 98% Calm Calm -- 29.41 in995.9 mb - 0.00 in0.0 mm 0.00 in0.0 mm
07:10 AM 28.6°F-1.9°C 28.1°F-2.2°C 98% Calm Calm 4.6 mph7.4 kmh 29.44 in997.0 mb - 0.00 in0.0 mm 0.00 in0.0 mm
07:20 AM 28.2°F-2.1°C 27.7°F-2.4°C 98% Calm Calm -- 29.41 in995.9 mb - 0.00 in0.0 mm 0.00 in0.0 mm
07:30 AM 28.2°F-2.1°C 27.7°F-2.4°C 98% 1.2 mph W1.9 kmh W -- 29.41 in995.9 mb - 0.00 in0.0 mm 0.00 in0.0 mm
07:40 AM 28.4°F-2.0°C 27.9°F-2.3°C 98% Calm Calm -- 29.41 in995.9 mb - 0.00 in0.0 mm 0.00 in0.0 mm
07:50 AM 28.2°F-2.1°C 27.7°F-2.4°C 98% Calm Calm -- 29.44 in997.0 mb - 0.00 in0.0 mm 0.00 in0.0 mm
08:00 AM 28.0°F-2.2°C 27.5°F-2.5°C 98% Calm Calm -- 29.44 in997.0 mb - 0.00 in0.0 mm 0.00 in0.0 mm
08:10 AM 27.9°F-2.3°C 27.4°F-2.6°C 98% Calm Calm -- 29.44 in997.0 mb - 0.00 in0.0 mm 0.00 in0.0 mm
08:20 AM 28.2°F-2.1°C 27.7°F-2.4°C 98% Calm Calm -- 29.44 in997.0 mb - 0.00 in0.0 mm 0.00 in0.0 mm
08:30 AM 28.6°F-1.9°C 28.1°F-2.2°C 98% 1.2 mph WNW1.9 kmh WNW 3.5 mph5.6 kmh 29.44 in997.0 mb - 0.00 in0.0 mm 0.00 in0.0 mm
08:40 AM 29.1°F-1.6°C 28.6°F-1.9°C 98% 1.2 mph W1.9 kmh W 2.3 mph3.7 kmh 29.41 in995.9 mb - 0.00 in0.0 mm 0.00 in0.0 mm
08:50 AM 29.1°F-1.6°C 28.6°F-1.9°C 98% Calm Calm 4.6 mph7.4 kmh 29.44 in997.0 mb - 0.00 in0.0 mm 0.00 in0.0 mm
09:00 AM 28.9°F-1.7°C 28.4°F-2.0°C 98% 1.2 mph WNW1.9 kmh WNW 4.6 mph7.4 kmh 29.44 in997.0 mb - 0.00 in0.0 mm 0.00 in0.0 mm
09:10 AM 28.8°F-1.8°C 28.3°F-2.1°C 98% Calm Calm -- 29.44 in997.0 mb - 0.00 in0.0 mm 0.00 in0.0 mm
09:20 AM 29.1°F-1.6°C 28.6°F-1.9°C 98% Calm Calm 5.8 mph9.3 kmh 29.44 in997.0 mb - 0.00 in0.0 mm 0.00 in0.0 mm
09:30 AM 29.1°F-1.6°C 28.6°F-1.9°C 98% Calm Calm -- 29.44 in997.0 mb - 0.00 in0.0 mm 0.00 in0.0 mm
09:40 AM 29.1°F-1.6°C 28.6°F-1.9°C 98% Calm Calm -- 29.44 in997.0 mb - 0.00 in0.0 mm 0.00 in0.0 mm
09:50 AM 29.3°F-1.5°C 28.8°F-1.8°C 98% Calm Calm -- 29.44 in997.0 mb - 0.00 in0.0 mm 0.00 in0.0 mm
10:00 AM 30.2°F-1.0°C 29.7°F-1.3°C 98% Calm Calm 4.6 mph7.4 kmh 29.44 in997.0 mb - 0.00 in0.0 mm 0.00 in0.0 mm
10:10 AM 30.4°F-0.9°C 29.9°F-1.2°C 98% Calm Calm -- 29.44 in997.0 mb - 0.00 in0.0 mm 0.00 in0.0 mm
10:20 AM 30.9°F-0.6°C 30.4°F-0.9°C 98% Calm Calm 6.9 mph11.1 kmh 29.44 in997.0 mb - 0.00 in0.0 mm 0.00 in0.0 mm
10:30 AM 31.9°F-0.1°C 31.4°F-0.3°C 98% 2.3 mph WNW3.7 kmh WNW 4.6 mph7.4 kmh 29.44 in997.0 mb - 0.00 in0.0 mm 0.00 in0.0 mm
10:40 AM 32.5°F0.3°C 31.8°F-0.1°C 97% 1.2 mph W1.9 kmh W -- 29.44 in997.0 mb - 0.00 in0.0 mm 0.00 in0.0 mm
10:50 AM 33.1°F0.6°C 31.0°F-0.6°C 92% 3.5 mph WNW5.6 kmh WNW 5.8 mph9.3 kmh 29.44 in997.0 mb - 0.00 in0.0 mm 0.00 in0.0 mm
11:00 AM 33.4°F0.8°C 31.1°F-0.5°C 91% Calm Calm 5.8 mph9.3 kmh 29.44 in997.0 mb - 0.00 in0.0 mm 0.00 in0.0 mm
11:10 AM 33.7°F0.9°C 31.1°F-0.5°C 90% Calm Calm 2.3 mph3.7 kmh 29.44 in997.0 mb - 0.00 in0.0 mm 0.00 in0.0 mm
11:20 AM 34.5°F1.4°C 32.5°F0.3°C 92% 1.2 mph WNW1.9 kmh WNW 2.3 mph3.7 kmh 29.44 in997.0 mb - 0.00 in0.0 mm 0.00 in0.0 mm
11:30 AM 34.9°F1.6°C 32.0°F0.0°C 89% 1.2 mph W1.9 kmh W 3.5 mph5.6 kmh 29.44 in997.0 mb - 0.00 in0.0 mm 0.00 in0.0 mm
11:40 AM 35.2°F1.8°C 32.0°F0.0°C 88% Calm Calm -- 29.47 in998.0 mb - 0.00 in0.0 mm 0.00 in0.0 mm
11:50 AM 35.8°F2.1°C 32.3°F0.2°C 87% Calm Calm -- 29.47 in998.0 mb - 0.00 in0.0 mm 0.00 in0.0 mm
12:00 PM 36.1°F2.3°C 32.6°F0.3°C 87% Calm Calm -- 29.47 in998.0 mb - 0.00 in0.0 mm 0.00 in0.0 mm
12:10 PM 35.2°F1.8°C 31.2°F-0.4°C 85% Calm Calm 3.5 mph5.6 kmh 29.44 in997.0 mb - 0.00 in0.0 mm 0.00 in0.0 mm
12:20 PM 34.9°F1.6°C 29.9°F-1.2°C 82% Calm Calm -- 29.47 in998.0 mb - 0.00 in0.0 mm 0.00 in0.0 mm
12:30 PM 35.1°F1.7°C 30.1°F-1.1°C 82% Calm Calm -- 29.47 in998.0 mb - 0.00 in0.0 mm 0.00 in0.0 mm
12:40 PM 34.9°F1.6°C 29.9°F-1.2°C 82% Calm Calm 3.5 mph5.6 kmh 29.47 in998.0 mb - 0.00 in0.0 mm 0.00 in0.0 mm
12:50 PM 34.9°F1.6°C 29.6°F-1.3°C 81% Calm Calm -- 29.47 in998.0 mb - 0.00 in0.0 mm 0.00 in0.0 mm
01:00 PM 35.1°F1.7°C 29.8°F-1.2°C 81% Calm Calm -- 29.47 in998.0 mb - 0.00 in0.0 mm 0.00 in0.0 mm
01:10 PM 35.1°F1.7°C 29.2°F-1.6°C 79% Calm Calm -- 29.47 in998.0 mb - 0.00 in0.0 mm 0.00 in0.0 mm
01:20 PM 35.1°F1.7°C 29.2°F-1.6°C 79% Calm Calm -- 29.47 in998.0 mb - 0.00 in0.0 mm 0.00 in0.0 mm
01:30 PM 35.1°F1.7°C 29.2°F-1.6°C 79% Calm Calm -- 29.47 in998.0 mb - 0.00 in0.0 mm 0.00 in0.0 mm
01:40 PM 34.9°F1.6°C 29.3°F-1.5°C 80% Calm Calm -- 29.47 in998.0 mb - 0.00 in0.0 mm 0.00 in0.0 mm
01:50 PM 34.9°F1.6°C 29.6°F-1.3°C 81% Calm Calm -- 29.47 in998.0 mb - 0.00 in0.0 mm 0.00 in0.0 mm
02:00 PM 34.9°F1.6°C 29.9°F-1.2°C 82% Calm Calm -- 29.47 in998.0 mb - 0.00 in0.0 mm 0.00 in0.0 mm
02:10 PM 35.1°F1.7°C 29.8°F-1.2°C 81% Calm Calm -- 29.47 in998.0 mb - 0.00 in0.0 mm 0.00 in0.0 mm
02:20 PM 35.4°F1.9°C 30.2°F-1.0°C 81% Calm Calm 5.8 mph9.3 kmh 29.50 in999.0 mb - 0.00 in0.0 mm 0.00 in0.0 mm
02:30 PM 35.8°F2.1°C 29.3°F-1.5°C 77% 1.2 mph W1.9 kmh W 5.8 mph9.3 kmh 29.50 in999.0 mb - 0.00 in0.0 mm 0.00 in0.0 mm
02:40 PM 35.4°F1.9°C 28.6°F-1.9°C 76% Calm Calm 3.5 mph5.6 kmh 29.50 in999.0 mb - 0.00 in0.0 mm 0.00 in0.0 mm
02:50 PM 35.1°F1.7°C 28.6°F-1.9°C 77% Calm Calm -- 29.50 in999.0 mb - 0.00 in0.0 mm 0.00 in0.0 mm
03:00 PM 34.5°F1.4°C 28.4°F-2.0°C 78% Calm Calm 1.2 mph1.9 kmh 29.50 in999.0 mb - 0.00 in0.0 mm 0.00 in0.0 mm
03:10 PM 34.2°F1.2°C 28.3°F-2.1°C 79% Calm Calm -- 29.50 in999.0 mb - 0.00 in0.0 mm 0.00 in0.0 mm
03:20 PM 33.8°F1.0°C 28.3°F-2.1°C 80% Calm Calm 1.2 mph1.9 kmh 29.53 in1000.0 mb - 0.00 in0.0 mm 0.00 in0.0 mm
03:30 PM 33.8°F1.0°C 28.3°F-2.1°C 80% Calm Calm -- 29.53 in1000.0 mb - 0.00 in0.0 mm 0.00 in0.0 mm
03:40 PM 33.6°F0.9°C 28.4°F-2.0°C 81% Calm Calm 4.6 mph7.4 kmh 29.56 in1001.0 mb - 0.00 in0.0 mm 0.00 in0.0 mm
03:50 PM 33.4°F0.8°C 27.9°F-2.3°C 80% 1.2 mph WNW1.9 kmh WNW 5.8 mph9.3 kmh 29.56 in1001.0 mb - 0.00 in0.0 mm 0.00 in0.0 mm
04:00 PM 33.1°F0.6°C 27.6°F-2.4°C 80% 1.2 mph W1.9 kmh W -- 29.56 in1001.0 mb - 0.00 in0.0 mm 0.00 in0.0 mm
04:10 PM 32.5°F0.3°C 27.0°F-2.8°C 80% Calm Calm -- 29.56 in1001.0 mb - 0.00 in0.0 mm 0.00 in0.0 mm
04:20 PM 31.8°F-0.1°C 26.7°F-2.9°C 81% Calm Calm -- 29.56 in1001.0 mb - 0.00 in0.0 mm 0.00 in0.0 mm
04:30 PM 31.1°F-0.5°C 26.2°F-3.2°C 82% Calm Calm -- 29.56 in1001.0 mb - 0.00 in0.0 mm 0.00 in0.0 mm
04:40 PM 30.9°F-0.6°C 26.4°F-3.1°C 83% Calm Calm 2.3 mph3.7 kmh 29.56 in1001.0 mb - 0.00 in0.0 mm 0.00 in0.0 mm
04:50 PM 30.6°F-0.8°C 26.4°F-3.1°C 84% Calm Calm -- 29.59 in1002.0 mb - 0.00 in0.0 mm 0.00 in0.0 mm
05:00 PM 29.9°F-1.2°C 25.9°F-3.4°C 85% Calm Calm -- 29.59 in1002.0 mb - 0.00 in0.0 mm 0.00 in0.0 mm
05:10 PM 29.5°F-1.4°C 25.8°F-3.4°C 86% Calm Calm -- 29.59 in1002.0 mb - 0.00 in0.0 mm 0.00 in0.0 mm
05:20 PM 29.5°F-1.4°C 26.1°F-3.3°C 87% Calm Calm -- 29.59 in1002.0 mb - 0.00 in0.0 mm 0.00 in0.0 mm
05:30 PM 29.4°F-1.4°C 26.2°F-3.2°C 88% Calm Calm -- 29.59 in1002.0 mb - 0.00 in0.0 mm 0.00 in0.0 mm
05:40 PM 29.3°F-1.5°C 26.5°F-3.1°C 89% Calm Calm -- 29.62 in1003.0 mb - 0.00 in0.0 mm 0.00 in0.0 mm
05:50 PM 29.1°F-1.6°C 26.3°F-3.2°C 89% 1.2 mph W1.9 kmh W 3.5 mph5.6 kmh 29.62 in1003.0 mb - 0.00 in0.0 mm 0.00 in0.0 mm
06:00 PM 28.9°F-1.7°C 26.1°F-3.3°C 89% Calm Calm -- 29.62 in1003.0 mb - 0.00 in0.0 mm 0.00 in0.0 mm
06:10 PM 28.6°F-1.9°C 25.8°F-3.4°C 89% 1.2 mph WSW1.9 kmh WSW 3.5 mph5.6 kmh 29.62 in1003.0 mb - 0.00 in0.0 mm 0.00 in0.0 mm
06:20 PM 28.6°F-1.9°C 26.0°F-3.3°C 90% Calm Calm -- 29.62 in1003.0 mb - 0.00 in0.0 mm 0.00 in0.0 mm
06:30 PM 28.9°F-1.7°C 26.4°F-3.1°C 90% 1.2 mph WNW1.9 kmh WNW -- 29.62 in1003.0 mb - 0.00 in0.0 mm 0.00 in0.0 mm
06:40 PM 29.3°F-1.5°C 26.7°F-2.9°C 90% Calm Calm -- 29.62 in1003.0 mb - 0.00 in0.0 mm 0.00 in0.0 mm
06:50 PM 29.1°F-1.6°C 26.6°F-3.0°C 90% 1.2 mph W1.9 kmh W 3.5 mph5.6 kmh 29.65 in1004.1 mb - 0.00 in0.0 mm 0.00 in0.0 mm
07:00 PM 29.1°F-1.6°C 26.6°F-3.0°C 90% 2.3 mph WNW3.7 kmh WNW -- 29.65 in1004.1 mb - 0.00 in0.0 mm 0.00 in0.0 mm
07:10 PM 28.9°F-1.7°C 26.1°F-3.3°C 89% Calm Calm -- 29.68 in1005.1 mb - 0.00 in0.0 mm 0.00 in0.0 mm
07:20 PM 29.1°F-1.6°C 26.6°F-3.0°C 90% Calm Calm -- 29.68 in1005.1 mb - 0.00 in0.0 mm 0.00 in0.0 mm
07:30 PM 28.8°F-1.8°C 25.9°F-3.4°C 89% Calm Calm -- 29.68 in1005.1 mb - 0.00 in0.0 mm 0.00 in0.0 mm
07:40 PM 28.4°F-2.0°C 25.6°F-3.6°C 89% 1.2 mph W1.9 kmh W -- 29.68 in1005.1 mb - 0.00 in0.0 mm 0.00 in0.0 mm
07:50 PM 28.6°F-1.9°C 26.0°F-3.3°C 90% Calm Calm -- 29.68 in1005.1 mb - 0.00 in0.0 mm 0.00 in0.0 mm
08:00 PM 28.6°F-1.9°C 26.0°F-3.3°C 90% 1.2 mph W1.9 kmh W 8.1 mph13.0 kmh 29.68 in1005.1 mb - 0.00 in0.0 mm 0.00 in0.0 mm
08:10 PM 28.9°F-1.7°C 26.4°F-3.1°C 90% 1.2 mph WNW1.9 kmh WNW -- 29.68 in1005.1 mb - 0.00 in0.0 mm 0.00 in0.0 mm
08:20 PM 28.4°F-2.0°C 25.8°F-3.4°C 90% Calm Calm -- 29.65 in1004.1 mb - 0.00 in0.0 mm 0.00 in0.0 mm
08:30 PM 27.9°F-2.3°C 25.3°F-3.7°C 90% Calm Calm -- 29.65 in1004.1 mb - 0.00 in0.0 mm 0.00 in0.0 mm
08:40 PM 27.9°F-2.3°C 25.3°F-3.7°C 90% Calm Calm 2.3 mph3.7 kmh 29.68 in1005.1 mb - 0.00 in0.0 mm 0.00 in0.0 mm
08:50 PM 27.9°F-2.3°C 25.6°F-3.6°C 91% Calm Calm 4.6 mph7.4 kmh 29.68 in1005.1 mb - 0.00 in0.0 mm 0.00 in0.0 mm
09:00 PM 27.7°F-2.4°C 25.4°F-3.7°C 91% Calm Calm -- 29.68 in1005.1 mb - 0.00 in0.0 mm 0.00 in0.0 mm
09:10 PM 28.0°F-2.2°C 25.8°F-3.4°C 91% 1.2 mph W1.9 kmh W 3.5 mph5.6 kmh 29.71 in1006.1 mb - 0.00 in0.0 mm 0.00 in0.0 mm
09:20 PM 28.0°F-2.2°C 25.8°F-3.4°C 91% Calm Calm -- 29.71 in1006.1 mb - 0.00 in0.0 mm 0.00 in0.0 mm
09:30 PM 27.8°F-2.3°C 25.5°F-3.6°C 91% Calm Calm 5.8 mph9.3 kmh 29.71 in1006.1 mb - 0.00 in0.0 mm 0.00 in0.0 mm
09:40 PM 27.3°F-2.6°C 25.0°F-3.9°C 91% 1.2 mph WNW1.9 kmh WNW -- 29.71 in1006.1 mb - 0.00 in0.0 mm 0.00 in0.0 mm
09:50 PM 27.0°F-2.8°C 24.7°F-4.1°C 91% Calm Calm -- 29.71 in1006.1 mb - 0.00 in0.0 mm 0.00 in0.0 mm
10:00 PM 26.6°F-3.0°C 24.3°F-4.3°C 91% Calm Calm -- 29.71 in1006.1 mb - 0.00 in0.0 mm 0.00 in0.0 mm
10:10 PM 27.0°F-2.8°C 24.9°F-3.9°C 92% Calm Calm 2.3 mph3.7 kmh 29.71 in1006.1 mb - 0.00 in0.0 mm 0.00 in0.0 mm
10:20 PM 27.5°F-2.5°C 25.5°F-3.6°C 92% Calm Calm -- 29.74 in1007.1 mb - 0.00 in0.0 mm 0.00 in0.0 mm
10:30 PM 27.9°F-2.3°C 26.1°F-3.3°C 93% 2.3 mph W3.7 kmh W 5.8 mph9.3 kmh 29.74 in1007.1 mb - 0.00 in0.0 mm 0.00 in0.0 mm
10:40 PM 27.5°F-2.5°C 25.5°F-3.6°C 92% 1.2 mph WNW1.9 kmh WNW -- 29.74 in1007.1 mb - 0.00 in0.0 mm 0.00 in0.0 mm
10:50 PM 27.1°F-2.7°C 24.9°F-3.9°C 91% Calm Calm -- 29.74 in1007.1 mb - 0.00 in0.0 mm 0.00 in0.0 mm
11:00 PM 27.1°F-2.7°C 25.1°F-3.8°C 92% Calm Calm -- 29.74 in1007.1 mb - 0.00 in0.0 mm 0.00 in0.0 mm
11:10 PM 27.3°F-2.6°C 25.3°F-3.7°C 92% 1.2 mph WNW1.9 kmh WNW 2.3 mph3.7 kmh 29.71 in1006.1 mb - 0.00 in0.0 mm 0.00 in0.0 mm
11:20 PM 27.1°F-2.7°C 25.1°F-3.8°C 92% Calm Calm -- 29.74 in1007.1 mb - 0.00 in0.0 mm 0.00 in0.0 mm
11:30 PM 27.0°F-2.8°C 24.9°F-3.9°C 92% Calm Calm 1.2 mph1.9 kmh 29.74 in1007.1 mb - 0.00 in0.0 mm 0.00 in0.0 mm
11:40 PM 26.8°F-2.9°C 24.8°F-4.0°C 92% Calm Calm -- 29.74 in1007.1 mb - 0.00 in0.0 mm 0.00 in0.0 mm
11:50 PM 27.3°F-2.6°C 25.6°F-3.6°C 93% Calm Calm -- 29.77 in1008.1 mb - 0.00 in0.0 mm 0.00 in0.0 mm